Aviation Digital Data Service (ADDS)

Output produced by METARs form (0950 UTC 30 August 2015)
found at http://aviationweather.gov/adds/metars/
 
KINT 300520Z 3006/3106 VRB03KT P6SM SCT100 BKN250 
     FM310000 VRB05KT P6SM OVC100 
     TEMPO 3103/3106 P6SM -RA OVC050